Time;durP1;ratioP1;P1;durP2;ratioP2;P2;SDS_P1;SDS_P2;PMS_P1;PMS_P2;Temp;Humidity;BMP_temperature;BMP_pressure;BME280_temperature;BME280_humidity;BME280_pressure;Samples;Min_cycle;Max_cycle;Signal;HPM_P1;HPM_P2
2023/06/12 00:01:06;;;;;;;7.53;5.73;;;16.80;72.00;;;;;;5015121;28;20462;-72
2023/06/12 00:03:57;;;;;;;10.10;7.27;;;16.80;72.40;;;;;;5007460;28;20842;-74
2023/06/12 00:06:42;;;;;;;6.83;6.00;;;16.70;72.00;;;;;;5006880;28;20453;-72
2023/06/12 00:09:28;;;;;;;7.10;6.27;;;16.70;72.70;;;;;;5017649;28;20977;-72
2023/06/12 00:12:15;;;;;;;8.47;6.67;;;16.90;72.80;;;;;;5020946;28;20444;-72
2023/06/12 00:15:00;;;;;;;9.30;5.77;;;17.00;72.20;;;;;;5010875;28;20491;-73
2023/06/12 00:17:46;;;;;;;7.47;6.57;;;16.90;72.10;;;;;;5015920;28;20480;-71
2023/06/12 00:20:32;;;;;;;6.53;5.73;;;16.70;72.50;;;;;;5011702;28;21464;-72
2023/06/12 00:23:17;;;;;;;6.90;6.20;;;16.70;73.60;;;;;;5033186;28;20528;-73
2023/06/12 00:26:03;;;;;;;7.00;6.17;;;16.60;73.70;;;;;;5027192;28;20450;-71
2023/06/12 00:28:49;;;;;;;7.93;6.90;;;16.70;74.00;;;;;;5016354;28;20592;-72
2023/06/12 00:31:35;;;;;;;7.70;6.50;;;16.70;73.20;;;;;;5010631;28;20994;-72
2023/06/12 00:34:21;;;;;;;6.60;5.90;;;16.70;72.90;;;;;;5010437;28;20440;-72
2023/06/12 00:37:07;;;;;;;8.30;5.77;;;16.70;73.00;;;;;;5009706;28;20516;-73
2023/06/12 00:39:53;;;;;;;7.73;5.87;;;16.70;72.90;;;;;;5011004;28;22854;-73
2023/06/12 00:42:45;;;;;;;7.90;5.70;;;16.80;73.10;;;;;;5010444;28;20467;-72
2023/06/12 00:45:31;;;;;;;6.90;6.00;;;16.70;73.20;;;;;;5010865;28;20452;-73
2023/06/12 00:48:17;;;;;;;7.43;6.03;;;16.80;73.50;;;;;;5010462;28;20465;-73
2023/06/12 00:51:03;;;;;;;6.70;5.20;;;16.90;73.20;;;;;;5007733;28;20864;-73
2023/06/12 00:53:52;;;;;;;11.90;6.33;;;16.90;72.50;;;;;;5009049;28;21650;-72
2023/06/12 00:56:37;;;;;;;10.83;6.10;;;16.80;72.70;;;;;;5008909;28;20457;-72
2023/06/12 00:59:23;;;;;;;6.20;5.23;;;16.80;73.00;;;;;;5012348;28;20540;-73
2023/06/12 01:02:10;;;;;;;12.23;6.13;;;16.70;72.60;;;;;;5011240;28;20449;-72
2023/06/12 01:04:56;;;;;;;9.90;6.10;;;16.70;72.70;;;;;;5011981;28;20457;-73
2023/06/12 01:07:47;;;;;;;5.73;5.13;;;16.60;73.10;;;;;;5008570;28;20491;-72
2023/06/12 01:10:40;;;;;;;6.70;6.00;;;16.60;74.60;;;;;;5008053;28;20712;-71
2023/06/12 01:13:26;;;;;;;7.13;5.80;;;16.80;73.50;;;;;;5009839;28;20934;-74
2023/06/12 01:16:12;;;;;;;8.17;6.57;;;16.80;73.50;;;;;;5009065;28;21668;-74
2023/06/12 01:19:00;;;;;;;6.37;5.70;;;16.70;72.40;;;;;;5013376;28;20461;-72
2023/06/12 01:21:49;;;;;;;7.20;6.00;;;16.60;73.10;;;;;;5027967;28;20516;-72
2023/06/12 01:25:04;;;;;;;6.83;5.53;;;16.60;73.10;;;;;;5010889;28;20458;-72
2023/06/12 01:28:07;;;;;;;10.70;5.80;;;16.50;74.50;;;;;;5013144;28;20832;-73
2023/06/12 01:31:08;;;;;;;7.60;5.90;;;16.60;73.90;;;;;;5008472;28;20515;-72
2023/06/12 01:34:07;;;;;;;8.53;7.07;;;16.60;73.80;;;;;;5009985;28;20509;-72
2023/06/12 01:37:05;;;;;;;8.90;6.33;;;16.40;73.80;;;;;;5010655;28;21221;-72
2023/06/12 01:39:57;;;;;;;6.53;5.60;;;16.40;75.10;;;;;;5015049;28;20490;-71
2023/06/12 01:42:42;;;;;;;9.70;5.70;;;16.30;74.30;;;;;;5010019;28;21211;-73
2023/06/12 01:45:28;;;;;;;7.30;5.80;;;16.30;75.10;;;;;;5010324;28;20523;-71
2023/06/12 01:48:14;;;;;;;8.30;6.20;;;16.40;74.60;;;;;;5013839;28;20469;-72
2023/06/12 01:51:00;;;;;;;7.13;5.70;;;16.50;74.70;;;;;;5009991;28;20473;-73
2023/06/12 01:53:46;;;;;;;6.90;6.20;;;16.40;73.70;;;;;;5011752;28;20446;-72
2023/06/12 01:56:32;;;;;;;7.53;5.83;;;16.40;74.60;;;;;;5009490;28;20453;-73
2023/06/12 01:59:18;;;;;;;6.50;5.87;;;16.40;74.70;;;;;;5018228;28;20967;-72
2023/06/12 02:02:03;;;;;;;6.60;5.90;;;16.50;75.30;;;;;;5010703;28;20444;-71
2023/06/12 02:04:49;;;;;;;6.77;6.10;;;16.40;74.50;;;;;;5012186;28;20446;-72
2023/06/12 02:07:36;;;;;;;6.47;5.80;;;16.20;74.10;;;;;;5009997;28;20473;-72
2023/06/12 02:10:21;;;;;;;6.83;5.83;;;16.20;75.70;;;;;;5010488;28;20452;-72
2023/06/12 02:13:07;;;;;;;7.13;5.60;;;16.20;75.40;;;;;;5010588;28;20492;-72
2023/06/12 02:15:52;;;;;;;6.20;5.60;;;16.20;75.70;;;;;;5012051;28;20964;-73
2023/06/12 02:18:40;;;;;;;6.50;5.80;;;16.20;75.60;;;;;;5007748;28;20516;-73
2023/06/12 02:21:25;;;;;;;5.90;5.30;;;16.40;75.10;;;;;;5011132;28;20552;-73
2023/06/12 02:24:12;;;;;;;8.70;5.80;;;16.30;74.70;;;;;;5020440;28;20450;-74
2023/06/12 02:26:57;;;;;;;7.40;5.33;;;16.20;74.60;;;;;;5011627;28;20536;-73
2023/06/12 02:29:43;;;;;;;7.37;5.97;;;16.30;74.90;;;;;;5009887;28;20446;-72
2023/06/12 02:32:28;;;;;;;13.53;7.23;;;16.40;74.50;;;;;;5008622;28;20519;-72
2023/06/12 02:35:14;;;;;;;9.40;6.33;;;16.20;74.30;;;;;;5007721;28;20412;-72
2023/06/12 02:37:59;;;;;;;11.87;7.67;;;16.30;74.80;;;;;;5013509;28;21093;-73
2023/06/12 02:40:46;;;;;;;8.30;6.40;;;16.20;74.70;;;;;;5010040;28;20734;-72
2023/06/12 02:43:32;;;;;;;7.70;6.77;;;16.00;75.60;;;;;;5009297;28;20588;-72
2023/06/12 02:46:17;;;;;;;10.13;6.90;;;15.90;76.30;;;;;;5008671;28;20440;-73
2023/06/12 02:49:03;;;;;;;11.97;6.53;;;16.00;76.80;;;;;;5008427;28;20627;-73
2023/06/12 02:51:49;;;;;;;9.37;6.43;;;16.00;76.50;;;;;;5019745;28;20477;-72
2023/06/12 02:54:35;;;;;;;8.20;6.20;;;16.00;77.20;;;;;;5007257;28;20435;-73
2023/06/12 02:57:21;;;;;;;7.30;6.13;;;16.00;76.70;;;;;;5010438;28;20950;-72
2023/06/12 03:00:08;;;;;;;9.53;5.87;;;16.00;76.40;;;;;;5007307;28;20525;-72
2023/06/12 03:02:55;;;;;;;8.43;6.57;;;16.00;76.00;;;;;;5009154;28;20450;-74
2023/06/12 03:05:41;;;;;;;8.83;6.77;;;16.00;76.10;;;;;;5009229;28;20516;-72
2023/06/12 03:08:26;;;;;;;7.43;5.80;;;16.00;76.50;;;;;;5008450;28;20600;-72
2023/06/12 03:11:12;;;;;;;8.30;6.57;;;15.90;78.50;;;;;;5008643;28;20465;-73
2023/06/12 03:13:59;;;;;;;6.90;6.20;;;16.00;77.80;;;;;;5009738;28;20448;-73
2023/06/12 03:16:44;;;;;;;7.73;6.43;;;16.00;77.60;;;;;;5007649;28;21026;-74
2023/06/12 03:19:30;;;;;;;8.03;6.43;;;16.10;78.20;;;;;;5011762;28;20990;-72
2023/06/12 03:22:15;;;;;;;6.60;5.90;;;16.10;78.30;;;;;;5010003;28;20520;-72
2023/06/12 03:25:01;;;;;;;7.97;5.70;;;15.90;77.30;;;;;;5017554;28;20453;-72
2023/06/12 03:27:47;;;;;;;6.93;6.23;;;15.90;77.70;;;;;;5006062;28;20622;-72
2023/06/12 03:30:34;;;;;;;8.40;5.90;;;15.80;78.00;;;;;;5009160;28;21039;-74
2023/06/12 03:33:19;;;;;;;9.33;6.30;;;15.90;78.40;;;;;;5009709;28;20457;-73
2023/06/12 03:36:06;;;;;;;10.43;6.60;;;16.00;78.20;;;;;;5010171;28;20459;-74
2023/06/12 03:38:51;;;;;;;11.17;6.57;;;15.90;78.00;;;;;;5008551;28;21018;-72
2023/06/12 03:41:39;;;;;;;6.33;5.70;;;15.70;78.90;;;;;;5007491;28;20441;-72
2023/06/12 03:44:25;;;;;;;9.23;6.47;;;15.80;79.60;;;;;;5007586;28;20449;-73
2023/06/12 03:47:12;;;;;;;8.23;7.17;;;15.90;78.90;;;;;;5009258;28;20987;-72
2023/06/12 03:49:57;;;;;;;8.47;6.50;;;15.80;79.00;;;;;;5011316;28;20441;-72
2023/06/12 03:52:43;;;;;;;9.30;6.93;;;15.80;80.50;;;;;;5013044;28;22358;-72
2023/06/12 03:55:28;;;;;;;13.73;5.73;;;15.60;81.00;;;;;;5010789;28;20428;-72
2023/06/12 03:58:16;;;;;;;9.50;7.23;;;15.60;81.50;;;;;;5011144;28;20490;-72
2023/06/12 04:01:02;;;;;;;9.03;6.20;;;15.60;82.80;;;;;;5013060;28;21003;-72
2023/06/12 04:03:49;;;;;;;10.23;6.63;;;15.60;84.20;;;;;;5010544;28;20454;-72
2023/06/12 04:06:40;;;;;;;9.60;6.90;;;15.80;86.60;;;;;;5015626;28;20418;-73
2023/06/12 04:09:25;;;;;;;10.53;7.07;;;15.80;85.80;;;;;;5018056;28;20449;-71
2023/06/12 04:12:12;;;;;;;14.03;6.70;;;15.90;85.70;;;;;;5019211;28;20515;-73
2023/06/12 04:14:58;;;;;;;9.10;6.90;;;16.00;85.90;;;;;;5019446;28;20809;-72
2023/06/12 04:17:43;;;;;;;15.50;7.40;;;16.10;84.90;;;;;;5018909;28;20587;-71
2023/06/12 04:20:32;;;;;;;12.77;6.70;;;16.10;85.90;;;;;;5019614;28;20457;-71
2023/06/12 04:23:17;;;;;;;25.93;5.90;;;16.10;86.70;;;;;;5032221;28;20848;-72
2023/06/12 04:26:04;;;;;;;9.67;6.37;;;16.20;86.80;;;;;;5021140;28;20441;-72
2023/06/12 04:28:50;;;;;;;11.10;7.50;;;16.30;87.20;;;;;;5019283;28;20464;-71
2023/06/12 04:31:36;;;;;;;8.73;7.37;;;16.40;87.90;;;;;;5019510;28;21288;-72
2023/06/12 04:34:24;;;;;;;9.93;6.73;;;16.40;88.10;;;;;;5019620;28;20495;-72
2023/06/12 04:37:11;;;;;;;9.80;6.53;;;16.60;87.60;;;;;;5016986;28;20846;-72
2023/06/12 04:39:57;;;;;;;13.43;7.03;;;16.60;87.50;;;;;;5015066;28;20524;-72
2023/06/12 04:42:43;;;;;;;8.77;6.83;;;16.70;87.80;;;;;;5017941;28;20445;-72
2023/06/12 04:45:32;;;;;;;7.40;6.70;;;16.70;88.70;;;;;;5019299;28;20419;-72
2023/06/12 04:48:18;;;;;;;11.40;6.90;;;16.80;88.60;;;;;;5014460;28;20470;-72
2023/06/12 04:51:04;;;;;;;8.30;6.07;;;16.90;90.10;;;;;;5022385;28;20800;-72
2023/06/12 04:53:53;;;;;;;9.20;6.47;;;17.00;90.10;;;;;;5020052;28;20477;-71
2023/06/12 04:56:40;;;;;;;9.83;5.97;;;17.10;90.20;;;;;;5020364;28;20585;-73
2023/06/12 04:59:26;;;;;;;9.27;6.87;;;17.10;90.20;;;;;;5023146;28;20445;-71
2023/06/12 05:02:12;;;;;;;10.80;6.17;;;17.20;90.60;;;;;;5019881;28;20450;-71
2023/06/12 05:04:58;;;;;;;8.20;6.70;;;17.30;91.10;;;;;;5019428;28;21123;-71
2023/06/12 05:07:45;;;;;;;7.40;6.13;;;17.40;91.00;;;;;;5023245;28;20567;-71
2023/06/12 05:10:32;;;;;;;8.60;6.57;;;17.60;90.50;;;;;;5023138;28;20453;-71
2023/06/12 05:13:18;;;;;;;7.17;6.47;;;17.70;90.40;;;;;;5011068;28;20452;-70
2023/06/12 05:16:03;;;;;;;12.23;7.10;;;17.80;90.40;;;;;;5004553;28;20423;-71
2023/06/12 05:18:49;;;;;;;10.83;7.07;;;17.90;90.40;;;;;;5011717;28;20584;-72
2023/06/12 05:21:35;;;;;;;7.40;6.60;;;18.10;89.80;;;;;;5033469;28;20506;-73
2023/06/12 05:24:21;;;;;;;9.00;7.10;;;18.20;90.60;;;;;;5026226;28;20443;-74
2023/06/12 05:27:07;;;;;;;7.43;6.37;;;18.40;90.50;;;;;;5019678;28;20481;-72
2023/06/12 05:29:53;;;;;;;6.70;6.00;;;18.50;89.10;;;;;;5017080;28;20440;-73
2023/06/12 05:32:39;;;;;;;7.77;5.80;;;18.80;86.80;;;;;;5018655;28;20500;-72
2023/06/12 05:35:24;;;;;;;7.97;7.03;;;18.80;83.10;;;;;;5018654;28;20508;-71
2023/06/12 05:38:10;;;;;;;9.10;6.43;;;19.00;85.50;;;;;;5023669;28;20476;-72
2023/06/12 05:40:56;;;;;;;8.10;6.27;;;19.10;85.40;;;;;;5021590;28;20858;-73
2023/06/12 05:43:44;;;;;;;8.30;6.03;;;19.20;84.90;;;;;;5019573;28;21041;-72
2023/06/12 05:46:29;;;;;;;9.17;6.40;;;19.30;74.50;;;;;;5021139;28;20437;-72
2023/06/12 05:49:15;;;;;;;7.07;6.00;;;19.40;72.70;;;;;;5020556;28;20584;-72
2023/06/12 05:52:02;;;;;;;6.50;5.73;;;19.40;70.90;;;;;;5020240;28;20536;-72
2023/06/12 05:54:48;;;;;;;9.47;6.93;;;19.50;68.70;;;;;;5016723;28;20442;-72
2023/06/12 05:57:34;;;;;;;7.03;5.90;;;19.60;66.30;;;;;;5017128;28;20469;-71
2023/06/12 06:00:22;;;;;;;7.00;6.30;;;19.80;68.40;;;;;;5024582;28;20791;-71
2023/06/12 06:03:07;;;;;;;8.23;6.23;;;20.00;60.60;;;;;;5018632;28;20442;-71
2023/06/12 06:05:53;;;;;;;9.30;6.60;;;20.20;60.10;;;;;;5016270;28;20499;-71
2023/06/12 06:08:39;;;;;;;8.10;6.40;;;20.30;62.50;;;;;;5022867;28;20605;-72
2023/06/12 06:11:24;;;;;;;7.50;5.90;;;20.50;64.20;;;;;;5013192;28;20449;-72
2023/06/12 06:14:10;;;;;;;7.93;7.13;;;20.60;59.70;;;;;;5031578;28;20439;-72
2023/06/12 06:16:57;;;;;;;7.47;6.70;;;20.70;59.80;;;;;;5016561;28;20445;-71
2023/06/12 06:19:42;;;;;;;7.83;6.00;;;20.90;57.20;;;;;;5024237;28;20531;-72
2023/06/12 06:22:28;;;;;;;7.23;6.53;;;21.10;61.40;;;;;;5017903;28;20994;-72
2023/06/12 06:25:15;;;;;;;7.30;6.60;;;21.20;56.90;;;;;;5031108;28;20498;-72
2023/06/12 06:28:00;;;;;;;8.60;6.30;;;21.40;55.40;;;;;;5025910;28;20468;-72
2023/06/12 06:30:46;;;;;;;7.57;5.70;;;21.50;55.30;;;;;;5021318;28;20500;-72
2023/06/12 06:33:33;;;;;;;9.50;6.50;;;21.60;57.20;;;;;;5021025;28;21020;-72
2023/06/12 06:36:19;;;;;;;8.83;6.27;;;21.80;53.50;;;;;;5018702;28;20449;-72
2023/06/12 06:39:04;;;;;;;8.70;6.00;;;21.90;51.90;;;;;;5016979;28;20505;-71
2023/06/12 06:41:50;;;;;;;8.03;6.40;;;22.00;50.30;;;;;;5019767;28;20433;-73
2023/06/12 06:44:35;;;;;;;7.30;6.50;;;22.10;51.70;;;;;;5017795;28;20524;-72
2023/06/12 06:47:21;;;;;;;7.73;5.90;;;22.20;50.40;;;;;;5018894;28;20469;-71
2023/06/12 06:50:09;;;;;;;7.00;6.30;;;22.30;49.00;;;;;;5012544;28;20446;-72
2023/06/12 06:52:54;;;;;;;6.77;6.07;;;22.40;49.60;;;;;;5015106;28;20511;-72
2023/06/12 06:55:42;;;;;;;7.67;6.00;;;22.50;49.80;;;;;;5015524;28;20465;-72
2023/06/12 06:58:27;;;;;;;8.23;6.20;;;22.60;48.40;;;;;;5017947;28;20485;-72
2023/06/12 07:01:13;;;;;;;6.97;6.27;;;22.70;48.50;;;;;;5017597;28;20444;-72
2023/06/12 07:03:58;;;;;;;9.73;7.90;;;22.80;46.20;;;;;;5016921;28;20445;-73
2023/06/12 07:06:45;;;;;;;8.87;6.13;;;22.90;45.40;;;;;;5022674;28;20927;-71
2023/06/12 07:09:30;;;;;;;8.60;6.50;;;23.00;42.80;;;;;;5017748;28;20589;-72
2023/06/12 07:12:16;;;;;;;11.53;5.73;;;23.00;44.60;;;;;;5016610;28;20475;-72
2023/06/12 07:15:01;;;;;;;13.57;6.23;;;23.10;44.50;;;;;;5017050;28;20452;-71
2023/06/12 07:17:47;;;;;;;7.47;6.40;;;23.20;45.10;;;;;;5019571;28;21001;-72
2023/06/12 07:20:33;;;;;;;6.50;5.87;;;23.30;43.80;;;;;;5021703;28;20444;-72
2023/06/12 07:23:20;;;;;;;7.10;6.40;;;23.30;41.10;;;;;;5028669;28;20428;-71
2023/06/12 07:26:05;;;;;;;7.27;6.57;;;23.40;42.00;;;;;;5022471;28;20492;-73
2023/06/12 07:28:51;;;;;;;6.40;5.80;;;23.40;43.20;;;;;;5023835;28;20827;-72
2023/06/12 07:31:36;;;;;;;9.90;6.80;;;23.50;43.30;;;;;;5017403;28;20507;-72
2023/06/12 07:34:22;;;;;;;6.33;5.73;;;23.50;39.50;;;;;;5020519;28;20436;-72
2023/06/12 07:37:08;;;;;;;8.30;6.27;;;23.60;41.40;;;;;;5020126;28;20481;-72
2023/06/12 07:39:55;;;;;;;6.43;5.63;;;23.70;43.40;;;;;;5019965;28;20507;-72
2023/06/12 07:42:42;;;;;;;8.80;6.10;;;23.80;42.00;;;;;;5010450;28;20442;-72
2023/06/12 07:45:27;;;;;;;7.77;6.90;;;23.80;39.20;;;;;;5018532;28;20446;-72
2023/06/12 07:48:13;;;;;;;10.10;6.23;;;23.80;38.40;;;;;;5020609;28;20547;-71
2023/06/12 07:50:58;;;;;;;7.50;6.80;;;23.90;36.30;;;;;;5016772;28;20450;-72
2023/06/12 07:53:44;;;;;;;8.47;5.97;;;23.90;37.70;;;;;;5017521;28;21001;-72
2023/06/12 07:56:32;;;;;;;9.93;8.00;;;24.00;38.00;;;;;;5017828;28;20521;-72
2023/06/12 07:59:17;;;;;;;7.17;6.40;;;24.00;37.70;;;;;;5022205;28;20460;-71
2023/06/12 08:02:03;;;;;;;8.03;6.03;;;24.10;37.40;;;;;;5016437;28;20459;-71
2023/06/12 08:04:49;;;;;;;7.27;6.50;;;24.10;35.30;;;;;;5017552;28;20438;-72
2023/06/12 08:07:34;;;;;;;9.07;6.33;;;24.20;34.50;;;;;;5016481;28;20597;-72
2023/06/12 08:10:20;;;;;;;8.83;6.70;;;24.20;35.40;;;;;;5016382;28;20436;-71
2023/06/12 08:13:07;;;;;;;6.90;6.03;;;24.30;37.70;;;;;;5014436;28;20464;-74
2023/06/12 08:15:52;;;;;;;11.70;8.10;;;24.40;36.10;;;;;;5009403;28;22814;-73
2023/06/12 08:18:38;;;;;;;13.73;7.70;;;24.50;37.30;;;;;;5011155;28;20476;-72
2023/06/12 08:21:25;;;;;;;8.47;7.67;;;24.60;37.40;;;;;;5012984;28;20436;-72
2023/06/12 08:24:12;;;;;;;6.10;5.50;;;24.60;33.30;;;;;;5030027;28;20442;-72
2023/06/12 08:26:58;;;;;;;6.33;5.73;;;24.70;34.90;;;;;;5013421;28;20816;-74
2023/06/12 08:29:45;;;;;;;12.83;6.90;;;24.70;34.60;;;;;;5009264;28;20832;-73
2023/06/12 08:32:31;;;;;;;14.23;7.10;;;24.80;36.20;;;;;;5004879;28;20467;-72
2023/06/12 08:35:16;;;;;;;7.70;6.20;;;24.90;35.70;;;;;;5011766;28;20448;-71
2023/06/12 08:38:02;;;;;;;7.13;6.43;;;25.00;36.10;;;;;;5008625;28;20512;-74
2023/06/12 08:40:48;;;;;;;8.60;6.93;;;25.10;31.80;;;;;;5005250;28;20488;-74
2023/06/12 08:43:35;;;;;;;6.83;6.03;;;25.10;34.90;;;;;;5004953;28;20447;-72
2023/06/12 08:46:22;;;;;;;6.63;5.73;;;25.30;30.80;;;;;;5005200;28;20488;-75
2023/06/12 08:49:09;;;;;;;6.00;5.27;;;25.30;27.90;;;;;;5004897;28;20489;-72
2023/06/12 08:51:54;;;;;;;9.10;6.03;;;25.20;28.00;;;;;;5004465;28;20456;-74
2023/06/12 08:54:41;;;;;;;6.60;5.90;;;25.20;30.10;;;;;;5004285;28;20684;-74
2023/06/12 08:57:27;;;;;;;8.87;6.97;;;25.30;29.90;;;;;;5004184;28;20604;-74
2023/06/12 09:00:15;;;;;;;6.90;6.20;;;25.40;30.90;;;;;;5012770;28;20500;-72
2023/06/12 09:03:04;;;;;;;9.83;7.00;;;25.40;29.20;;;;;;5006566;28;20444;-72
2023/06/12 09:05:52;;;;;;;6.33;5.53;;;25.30;28.70;;;;;;5003712;28;20450;-72
2023/06/12 09:08:41;;;;;;;8.93;6.03;;;25.20;27.70;;;;;;5008472;28;20858;-72
2023/06/12 09:11:27;;;;;;;7.13;5.60;;;25.10;26.40;;;;;;5007960;28;20478;-71
2023/06/12 09:14:12;;;;;;;8.33;5.70;;;25.10;26.70;;;;;;5008511;28;20489;-71
2023/06/12 09:16:58;;;;;;;8.17;5.77;;;25.30;23.40;;;;;;5005398;28;20448;-71
2023/06/12 09:19:46;;;;;;;8.73;6.03;;;25.30;24.60;;;;;;5007211;28;20459;-73
2023/06/12 09:22:31;;;;;;;6.53;5.10;;;25.40;25.00;;;;;;5005886;28;20437;-73
2023/06/12 09:25:17;;;;;;;11.13;6.57;;;25.40;22.90;;;;;;5007023;28;21782;-71
2023/06/12 09:28:03;;;;;;;7.53;5.90;;;25.50;23.10;;;;;;5007800;28;20546;-71
2023/06/12 09:30:49;;;;;;;7.77;5.97;;;25.70;23.30;;;;;;5008562;28;20590;-70
2023/06/12 09:33:38;;;;;;;6.00;5.40;;;25.80;20.30;;;;;;5003640;28;20565;-76
2023/06/12 09:36:30;;;;;;;6.93;6.10;;;26.00;23.70;;;;;;5008984;28;20500;-73
2023/06/12 09:39:16;;;;;;;6.73;5.97;;;26.10;22.10;;;;;;5006897;28;23276;-70
2023/06/12 09:42:02;;;;;;;8.17;6.60;;;26.10;19.70;;;;;;5005282;28;20471;-72
2023/06/12 09:44:48;;;;;;;6.53;5.83;;;26.20;18.70;;;;;;5006555;28;20960;-70
2023/06/12 09:47:35;;;;;;;8.87;6.03;;;26.20;19.80;;;;;;5006254;28;20472;-71
2023/06/12 09:50:22;;;;;;;10.43;6.70;;;26.20;18.90;;;;;;5005931;28;20542;-73
2023/06/12 09:53:11;;;;;;;7.00;6.07;;;26.20;20.20;;;;;;5005317;28;21008;-70
2023/06/12 09:55:57;;;;;;;7.43;5.93;;;26.20;19.20;;;;;;5005824;28;20461;-70
2023/06/12 09:58:47;;;;;;;8.83;6.53;;;26.30;18.80;;;;;;5008615;28;20465;-74
2023/06/12 10:01:39;;;;;;;8.37;5.80;;;26.20;16.50;;;;;;5011486;28;20652;-74
2023/06/12 10:04:31;;;;;;;10.17;7.00;;;26.30;17.80;;;;;;5007793;28;20451;-72
2023/06/12 10:07:22;;;;;;;9.60;6.30;;;26.30;17.80;;;;;;5005338;28;20628;-70
2023/06/12 10:10:10;;;;;;;8.47;6.33;;;26.40;19.90;;;;;;5005474;28;20480;-71
2023/06/12 10:12:57;;;;;;;7.17;6.00;;;26.50;18.00;;;;;;5007515;28;20512;-71
2023/06/12 10:15:43;;;;;;;6.70;6.00;;;26.60;17.90;;;;;;5006897;28;20462;-70
2023/06/12 10:18:29;;;;;;;9.47;6.63;;;26.60;16.90;;;;;;5007325;28;20541;-70
2023/06/12 10:21:15;;;;;;;7.87;6.40;;;26.70;18.60;;;;;;5004963;28;20592;-70
2023/06/12 10:24:00;;;;;;;7.70;6.53;;;26.80;15.40;;;;;;5009474;28;20581;-70
2023/06/12 10:26:49;;;;;;;7.13;6.17;;;26.80;15.40;;;;;;5008131;28;20444;-70
2023/06/12 10:29:37;;;;;;;12.57;6.77;;;26.90;16.60;;;;;;5005448;28;20450;-70
2023/06/12 10:32:22;;;;;;;8.00;6.20;;;26.80;16.40;;;;;;5007570;28;20998;-72
2023/06/12 10:35:08;;;;;;;6.80;6.10;;;26.80;16.60;;;;;;5010209;28;20591;-71
2023/06/12 10:37:54;;;;;;;8.10;6.53;;;26.90;16.20;;;;;;5004390;28;20854;-71
2023/06/12 10:40:41;;;;;;;13.07;7.50;;;27.00;17.60;;;;;;5003472;28;20598;-73
2023/06/12 10:43:29;;;;;;;8.63;6.73;;;27.10;15.70;;;;;;5005489;28;20639;-73
2023/06/12 10:46:14;;;;;;;9.30;6.27;;;27.10;16.00;;;;;;5004510;28;21001;-71
2023/06/12 10:49:05;;;;;;;7.43;6.60;;;27.10;17.50;;;;;;5006081;28;20883;-71
2023/06/12 10:51:52;;;;;;;10.43;6.50;;;27.20;14.90;;;;;;5003986;28;21039;-73
2023/06/12 10:54:37;;;;;;;8.70;6.33;;;27.20;16.10;;;;;;5006534;28;20484;-72
2023/06/12 10:57:29;;;;;;;10.83;6.53;;;27.10;16.40;;;;;;5003418;28;20472;-73
2023/06/12 11:00:17;;;;;;;9.17;7.00;;;27.10;16.20;;;;;;5006754;28;20460;-70
2023/06/12 11:03:05;;;;;;;15.70;7.27;;;27.10;16.60;;;;;;5008205;28;20446;-72
2023/06/12 11:05:54;;;;;;;7.50;6.67;;;27.20;16.00;;;;;;5004755;28;20898;-72
2023/06/12 11:08:41;;;;;;;8.30;7.10;;;27.10;17.00;;;;;;5003098;28;20575;-73
2023/06/12 11:11:26;;;;;;;8.40;6.03;;;27.30;16.60;;;;;;5000604;28;20448;-72
2023/06/12 11:14:12;;;;;;;7.77;6.93;;;27.30;17.00;;;;;;5003912;28;20481;-71
2023/06/12 11:16:59;;;;;;;7.77;6.90;;;27.50;17.70;;;;;;5005654;28;20444;-70
2023/06/12 11:19:45;;;;;;;9.17;6.23;;;27.50;15.10;;;;;;5002411;28;20445;-73
2023/06/12 11:22:30;;;;;;;10.83;7.30;;;27.60;16.40;;;;;;5007365;28;21857;-71
2023/06/12 11:25:17;;;;;;;7.23;6.53;;;27.70;17.20;;;;;;5005188;28;20444;-70
2023/06/12 11:28:03;;;;;;;9.43;6.63;;;27.80;15.50;;;;;;5005712;28;20942;-71
2023/06/12 11:30:50;;;;;;;8.77;7.87;;;27.90;16.40;;;;;;5004340;28;20453;-70
2023/06/12 11:33:37;;;;;;;8.00;7.20;;;28.00;15.00;;;;;;5007655;28;20476;-72
2023/06/12 11:36:23;;;;;;;10.10;7.43;;;28.00;14.10;;;;;;5008040;28;20453;-70
2023/06/12 11:39:18;;;;;;;7.27;6.57;;;28.00;14.80;;;;;;5003917;28;20456;-71
2023/06/12 11:42:05;;;;;;;9.50;6.90;;;28.00;13.10;;;;;;5006948;28;20452;-70
2023/06/12 11:44:51;;;;;;;7.73;6.60;;;28.00;12.30;;;;;;5004654;28;20453;-70
2023/06/12 11:47:38;;;;;;;8.93;6.47;;;28.00;13.70;;;;;;5004849;28;20498;-71
2023/06/12 11:50:25;;;;;;;8.27;6.50;;;28.10;12.20;;;;;;5005096;28;21342;-70
2023/06/12 11:53:11;;;;;;;7.13;5.83;;;28.20;9.90;;;;;;5007412;28;20809;-71
2023/06/12 11:56:00;;;;;;;9.20;6.70;;;28.20;9.80;;;;;;5008147;28;20523;-73
2023/06/12 11:58:45;;;;;;;8.90;5.90;;;28.20;13.10;;;;;;5003744;28;20569;-71
2023/06/12 12:01:37;;;;;;;11.80;5.60;;;28.40;9.80;;;;;;5009563;28;20449;-72
2023/06/12 12:04:23;;;;;;;11.80;5.93;;;28.50;9.80;;;;;;5006419;28;20460;-73
2023/06/12 12:07:10;;;;;;;9.97;5.97;;;28.50;11.20;;;;;;5006298;28;20520;-70
2023/06/12 12:10:06;;;;;;;15.93;5.40;;;28.60;9.80;;;;;;5010694;28;20454;-70
2023/06/12 12:12:58;;;;;;;8.73;6.30;;;28.60;11.60;;;;;;5013127;28;20471;-72
2023/06/12 12:15:43;;;;;;;7.60;5.57;;;28.70;8.80;;;;;;5008973;28;20574;-71
2023/06/12 12:18:29;;;;;;;7.93;5.93;;;28.70;8.70;;;;;;5011513;28;20471;-70
2023/06/12 12:21:14;;;;;;;8.10;6.30;;;28.60;10.40;;;;;;5010529;28;20446;-73
2023/06/12 12:24:02;;;;;;;9.93;6.20;;;28.60;9.30;;;;;;5013873;28;20441;-71
2023/06/12 12:26:50;;;;;;;12.37;6.77;;;28.70;9.30;;;;;;5005692;28;20453;-70
2023/06/12 12:29:36;;;;;;;5.80;5.10;;;28.70;8.80;;;;;;5009552;28;20486;-71
2023/06/12 12:32:21;;;;;;;7.30;6.17;;;28.80;9.50;;;;;;5006359;28;21122;-72
2023/06/12 12:35:08;;;;;;;8.93;5.77;;;28.90;8.00;;;;;;5015006;28;20614;-73
2023/06/12 12:37:55;;;;;;;8.23;6.53;;;28.70;7.90;;;;;;5009824;28;20522;-70
2023/06/12 12:40:41;;;;;;;7.87;5.60;;;28.70;9.30;;;;;;5006991;28;20516;-70
2023/06/12 12:43:27;;;;;;;7.80;5.93;;;28.70;10.40;;;;;;5007871;28;20525;-72
2023/06/12 12:46:13;;;;;;;7.37;6.00;;;28.70;8.20;;;;;;5004867;28;20445;-70
2023/06/12 12:48:58;;;;;;;7.50;5.67;;;28.70;7.70;;;;;;5005688;28;20472;-71
2023/06/12 12:51:44;;;;;;;9.20;6.47;;;28.70;9.50;;;;;;5008652;28;20445;-71
2023/06/12 12:54:30;;;;;;;5.90;5.20;;;28.70;9.50;;;;;;5010380;28;20472;-70
2023/06/12 12:57:16;;;;;;;13.50;6.27;;;28.90;11.00;;;;;;5008166;28;20617;-72
2023/06/12 13:00:05;;;;;;;7.20;5.83;;;29.00;9.50;;;;;;5011502;28;20450;-71
2023/06/12 13:02:51;;;;;;;8.33;6.00;;;29.20;9.60;;;;;;5008660;28;20485;-70
2023/06/12 13:05:37;;;;;;;21.87;6.50;;;29.20;9.60;;;;;;5003632;28;20526;-70
2023/06/12 13:08:23;;;;;;;7.27;6.10;;;29.40;9.30;;;;;;5011005;28;20557;-70
2023/06/12 13:11:08;;;;;;;9.00;6.60;;;29.60;9.90;;;;;;5007526;28;20456;-70
2023/06/12 13:13:54;;;;;;;12.20;6.50;;;29.70;7.40;;;;;;5008143;28;20589;-70
2023/06/12 13:16:40;;;;;;;9.07;5.57;;;29.80;8.90;;;;;;5009757;28;20492;-73
2023/06/12 13:19:28;;;;;;;7.83;6.07;;;29.90;6.40;;;;;;5007309;28;20890;-71
2023/06/12 13:22:13;;;;;;;6.57;5.20;;;29.90;8.80;;;;;;5007534;28;20469;-72
2023/06/12 13:24:58;;;;;;;6.77;5.40;;;30.00;7.80;;;;;;5008346;28;20505;-71
2023/06/12 13:27:44;;;;;;;5.80;5.00;;;30.10;6.20;;;;;;5009012;28;20518;-73
2023/06/12 13:30:31;;;;;;;10.93;4.80;;;30.20;5.80;;;;;;5003424;28;20517;-70
2023/06/12 13:33:17;;;;;;;6.43;5.30;;;30.20;5.50;;;;;;5008432;28;21003;-72
2023/06/12 13:36:02;;;;;;;6.17;5.57;;;30.40;6.70;;;;;;5007043;28;20436;-73
2023/06/12 13:38:48;;;;;;;6.20;5.20;;;30.50;5.10;;;;;;5033331;22;21039;-72
2023/06/12 13:41:33;;;;;;;7.40;5.90;;;30.50;6.50;;;;;;5055071;28;20457;-72
2023/06/12 13:44:19;;;;;;;7.20;5.10;;;30.50;7.30;;;;;;5060205;28;20585;-72
2023/06/12 13:47:07;;;;;;;8.60;5.90;;;30.50;6.90;;;;;;5056631;28;20812;-72
2023/06/12 13:49:52;;;;;;;16.40;6.37;;;30.50;6.80;;;;;;5040390;28;20873;-72
2023/06/12 13:52:38;;;;;;;12.23;5.83;;;30.40;7.00;;;;;;5036865;28;20448;-72
2023/06/12 13:55:23;;;;;;;6.40;5.80;;;30.40;7.30;;;;;;5038083;28;20471;-72
2023/06/12 13:58:09;;;;;;;7.90;6.00;;;30.40;7.40;;;;;;5037800;28;20922;-72
2023/06/12 14:00:54;;;;;;;7.80;5.53;;;30.40;8.00;;;;;;5042129;28;20541;-72
2023/06/12 14:03:43;;;;;;;10.73;6.70;;;30.40;8.10;;;;;;5036331;28;20447;-73
2023/06/12 14:06:29;;;;;;;8.37;5.53;;;30.50;7.20;;;;;;5038526;28;20992;-73
2023/06/12 14:09:14;;;;;;;7.30;5.53;;;30.60;8.60;;;;;;5041211;28;22792;-72
2023/06/12 14:11:59;;;;;;;6.77;5.80;;;30.70;7.90;;;;;;5043097;28;20556;-72
2023/06/12 14:14:45;;;;;;;6.40;5.70;;;30.80;6.70;;;;;;5037857;28;21097;-72
2023/06/12 14:17:31;;;;;;;7.63;6.40;;;30.90;6.40;;;;;;5044674;28;20593;-72
2023/06/12 14:20:18;;;;;;;6.73;5.80;;;31.00;5.40;;;;;;5042694;28;21065;-73
2023/06/12 14:23:04;;;;;;;10.73;4.60;;;30.90;5.20;;;;;;5040097;28;20456;-72
2023/06/12 14:25:49;;;;;;;8.27;5.57;;;30.90;5.10;;;;;;5040189;28;20486;-72
2023/06/12 14:28:34;;;;;;;7.63;5.83;;;30.90;4.80;;;;;;5038453;28;20464;-73